sensor_id;sensor_type;location;lat;lon;timestamp;P1;durP1;ratioP1;P2;durP2;ratioP2
823;SDS011;373;49.342;8.146;2022-11-21T00:00:39;2.95;;;0.93;;
823;SDS011;373;49.342;8.146;2022-11-21T00:03:07;4.47;;;1.05;;
823;SDS011;373;49.342;8.146;2022-11-21T00:05:37;2.50;;;0.88;;
823;SDS011;373;49.342;8.146;2022-11-21T00:08:05;5.85;;;1.35;;
823;SDS011;373;49.342;8.146;2022-11-21T00:10:32;4.05;;;1.55;;
823;SDS011;373;49.342;8.146;2022-11-21T00:12:59;4.43;;;1.58;;
823;SDS011;373;49.342;8.146;2022-11-21T00:15:26;6.55;;;1.50;;
823;SDS011;373;49.342;8.146;2022-11-21T00:17:55;4.85;;;1.70;;
823;SDS011;373;49.342;8.146;2022-11-21T00:20:22;4.65;;;1.70;;
823;SDS011;373;49.342;8.146;2022-11-21T00:22:49;6.40;;;2.45;;
823;SDS011;373;49.342;8.146;2022-11-21T00:25:16;4.25;;;1.95;;
823;SDS011;373;49.342;8.146;2022-11-21T00:27:43;5.55;;;1.98;;
823;SDS011;373;49.342;8.146;2022-11-21T00:30:10;6.35;;;1.83;;
823;SDS011;373;49.342;8.146;2022-11-21T00:32:38;6.57;;;2.58;;
823;SDS011;373;49.342;8.146;2022-11-21T00:35:07;5.68;;;1.98;;
823;SDS011;373;49.342;8.146;2022-11-21T00:37:34;7.07;;;1.95;;
823;SDS011;373;49.342;8.146;2022-11-21T00:40:01;9.40;;;3.13;;
823;SDS011;373;49.342;8.146;2022-11-21T00:42:29;6.90;;;2.50;;
823;SDS011;373;49.342;8.146;2022-11-21T00:44:56;7.18;;;1.60;;
823;SDS011;373;49.342;8.146;2022-11-21T00:47:23;6.18;;;1.92;;
823;SDS011;373;49.342;8.146;2022-11-21T00:49:50;4.97;;;1.85;;
823;SDS011;373;49.342;8.146;2022-11-21T00:52:18;6.18;;;2.00;;
823;SDS011;373;49.342;8.146;2022-11-21T00:54:45;6.20;;;2.00;;
823;SDS011;373;49.342;8.146;2022-11-21T00:57:12;4.15;;;1.40;;
823;SDS011;373;49.342;8.146;2022-11-21T00:59:39;4.63;;;1.70;;
823;SDS011;373;49.342;8.146;2022-11-21T01:02:06;5.32;;;1.60;;
823;SDS011;373;49.342;8.146;2022-11-21T01:04:34;4.03;;;1.55;;
823;SDS011;373;49.342;8.146;2022-11-21T01:07:01;3.75;;;1.10;;
823;SDS011;373;49.342;8.146;2022-11-21T01:09:29;3.47;;;1.40;;
823;SDS011;373;49.342;8.146;2022-11-21T01:11:56;2.45;;;1.10;;
823;SDS011;373;49.342;8.146;2022-11-21T01:14:23;5.85;;;1.67;;
823;SDS011;373;49.342;8.146;2022-11-21T01:16:52;4.72;;;1.45;;
823;SDS011;373;49.342;8.146;2022-11-21T01:19:19;2.85;;;1.25;;
823;SDS011;373;49.342;8.146;2022-11-21T01:21:46;1.83;;;0.90;;
823;SDS011;373;49.342;8.146;2022-11-21T01:24:13;2.80;;;1.17;;
823;SDS011;373;49.342;8.146;2022-11-21T01:26:42;1.70;;;0.88;;
823;SDS011;373;49.342;8.146;2022-11-21T01:29:09;4.25;;;1.05;;
823;SDS011;373;49.342;8.146;2022-11-21T01:31:37;1.83;;;0.90;;
823;SDS011;373;49.342;8.146;2022-11-21T01:34:04;1.92;;;1.05;;
823;SDS011;373;49.342;8.146;2022-11-21T01:36:32;3.22;;;1.30;;
823;SDS011;373;49.342;8.146;2022-11-21T01:39:00;1.98;;;0.90;;
823;SDS011;373;49.342;8.146;2022-11-21T01:41:30;2.55;;;1.10;;
823;SDS011;373;49.342;8.146;2022-11-21T01:44:01;2.58;;;0.80;;
823;SDS011;373;49.342;8.146;2022-11-21T01:46:29;3.40;;;0.70;;
823;SDS011;373;49.342;8.146;2022-11-21T01:48:57;2.63;;;0.90;;
823;SDS011;373;49.342;8.146;2022-11-21T01:51:29;3.13;;;0.80;;
823;SDS011;373;49.342;8.146;2022-11-21T01:53:59;1.95;;;0.80;;
823;SDS011;373;49.342;8.146;2022-11-21T01:56:31;3.17;;;0.80;;
823;SDS011;373;49.342;8.146;2022-11-21T01:59:02;2.78;;;0.98;;
823;SDS011;373;49.342;8.146;2022-11-21T02:01:31;1.42;;;0.60;;
823;SDS011;373;49.342;8.146;2022-11-21T02:04:00;1.27;;;0.75;;
823;SDS011;373;49.342;8.146;2022-11-21T02:06:29;4.65;;;1.02;;
823;SDS011;373;49.342;8.146;2022-11-21T02:08:58;2.60;;;0.90;;
823;SDS011;373;49.342;8.146;2022-11-21T02:11:27;1.90;;;1.00;;
823;SDS011;373;49.342;8.146;2022-11-21T02:13:58;2.92;;;1.10;;
823;SDS011;373;49.342;8.146;2022-11-21T02:16:27;0.90;;;0.60;;
823;SDS011;373;49.342;8.146;2022-11-21T02:18:54;1.83;;;0.80;;
823;SDS011;373;49.342;8.146;2022-11-21T02:21:25;1.40;;;1.10;;
823;SDS011;373;49.342;8.146;2022-11-21T02:24:02;4.65;;;1.20;;
823;SDS011;373;49.342;8.146;2022-11-21T02:26:36;2.47;;;1.50;;
823;SDS011;373;49.342;8.146;2022-11-21T02:29:03;4.43;;;1.25;;
823;SDS011;373;49.342;8.146;2022-11-21T02:31:30;1.83;;;1.20;;
823;SDS011;373;49.342;8.146;2022-11-21T02:33:57;1.80;;;1.08;;
823;SDS011;373;49.342;8.146;2022-11-21T02:36:41;2.40;;;1.38;;
823;SDS011;373;49.342;8.146;2022-11-21T02:39:10;1.73;;;0.98;;
823;SDS011;373;49.342;8.146;2022-11-21T02:41:43;3.03;;;0.88;;
823;SDS011;373;49.342;8.146;2022-11-21T02:44:18;2.60;;;0.80;;
823;SDS011;373;49.342;8.146;2022-11-21T02:46:49;5.55;;;1.17;;
823;SDS011;373;49.342;8.146;2022-11-21T02:49:19;1.25;;;0.82;;
823;SDS011;373;49.342;8.146;2022-11-21T02:51:53;2.75;;;0.80;;
823;SDS011;373;49.342;8.146;2022-11-21T02:54:20;1.70;;;1.10;;
823;SDS011;373;49.342;8.146;2022-11-21T02:56:49;2.75;;;0.90;;
823;SDS011;373;49.342;8.146;2022-11-21T02:59:16;1.83;;;1.13;;
823;SDS011;373;49.342;8.146;2022-11-21T03:01:43;2.72;;;0.70;;
823;SDS011;373;49.342;8.146;2022-11-21T03:04:10;2.53;;;1.02;;
823;SDS011;373;49.342;8.146;2022-11-21T03:06:37;2.85;;;0.63;;
823;SDS011;373;49.342;8.146;2022-11-21T03:09:04;1.75;;;0.60;;
823;SDS011;373;49.342;8.146;2022-11-21T03:11:31;1.77;;;0.68;;
823;SDS011;373;49.342;8.146;2022-11-21T03:13:59;0.98;;;0.40;;
823;SDS011;373;49.342;8.146;2022-11-21T03:16:26;1.00;;;0.43;;
823;SDS011;373;49.342;8.146;2022-11-21T03:18:53;1.10;;;0.55;;
823;SDS011;373;49.342;8.146;2022-11-21T03:21:22;2.33;;;0.40;;
823;SDS011;373;49.342;8.146;2022-11-21T03:23:49;0.70;;;0.60;;
823;SDS011;373;49.342;8.146;2022-11-21T03:26:16;1.30;;;0.30;;
823;SDS011;373;49.342;8.146;2022-11-21T03:28:43;1.80;;;0.50;;
823;SDS011;373;49.342;8.146;2022-11-21T03:31:12;1.13;;;0.55;;
823;SDS011;373;49.342;8.146;2022-11-21T03:33:39;0.70;;;0.40;;
823;SDS011;373;49.342;8.146;2022-11-21T03:36:06;0.85;;;0.40;;
823;SDS011;373;49.342;8.146;2022-11-21T03:38:33;2.10;;;0.57;;
823;SDS011;373;49.342;8.146;2022-11-21T03:41:02;0.98;;;0.50;;
823;SDS011;373;49.342;8.146;2022-11-21T03:43:30;1.52;;;0.70;;
823;SDS011;373;49.342;8.146;2022-11-21T03:45:57;0.80;;;0.52;;
823;SDS011;373;49.342;8.146;2022-11-21T03:48:25;0.50;;;0.50;;
823;SDS011;373;49.342;8.146;2022-11-21T03:50:52;1.27;;;0.50;;
823;SDS011;373;49.342;8.146;2022-11-21T03:53:20;2.35;;;0.52;;
823;SDS011;373;49.342;8.146;2022-11-21T03:55:47;1.85;;;0.60;;
823;SDS011;373;49.342;8.146;2022-11-21T03:58:14;0.70;;;0.70;;
823;SDS011;373;49.342;8.146;2022-11-21T04:00:41;0.73;;;0.50;;
823;SDS011;373;49.342;8.146;2022-11-21T04:03:08;1.38;;;1.00;;
823;SDS011;373;49.342;8.146;2022-11-21T04:05:36;0.40;;;0.40;;
823;SDS011;373;49.342;8.146;2022-11-21T04:08:04;1.25;;;0.50;;
823;SDS011;373;49.342;8.146;2022-11-21T04:10:31;1.90;;;0.60;;
823;SDS011;373;49.342;8.146;2022-11-21T04:12:58;2.03;;;0.70;;
823;SDS011;373;49.342;8.146;2022-11-21T04:15:25;1.73;;;0.70;;
823;SDS011;373;49.342;8.146;2022-11-21T04:17:52;1.65;;;0.80;;
823;SDS011;373;49.342;8.146;2022-11-21T04:20:19;1.08;;;0.65;;
823;SDS011;373;49.342;8.146;2022-11-21T04:22:47;0.93;;;0.70;;
823;SDS011;373;49.342;8.146;2022-11-21T04:25:14;2.45;;;1.15;;
823;SDS011;373;49.342;8.146;2022-11-21T04:27:41;1.85;;;0.85;;
823;SDS011;373;49.342;8.146;2022-11-21T04:30:09;1.90;;;0.63;;
823;SDS011;373;49.342;8.146;2022-11-21T04:32:37;2.25;;;0.85;;
823;SDS011;373;49.342;8.146;2022-11-21T04:35:04;1.35;;;0.90;;
823;SDS011;373;49.342;8.146;2022-11-21T04:37:32;1.73;;;0.80;;
823;SDS011;373;49.342;8.146;2022-11-21T04:40:01;2.17;;;1.13;;
823;SDS011;373;49.342;8.146;2022-11-21T04:42:28;3.00;;;0.73;;
823;SDS011;373;49.342;8.146;2022-11-21T04:44:55;3.40;;;1.25;;
823;SDS011;373;49.342;8.146;2022-11-21T04:47:22;1.48;;;0.88;;
823;SDS011;373;49.342;8.146;2022-11-21T04:49:49;3.00;;;0.90;;
823;SDS011;373;49.342;8.146;2022-11-21T04:52:16;3.03;;;1.17;;
823;SDS011;373;49.342;8.146;2022-11-21T04:54:43;2.30;;;1.20;;
823;SDS011;373;49.342;8.146;2022-11-21T04:57:12;2.17;;;1.33;;
823;SDS011;373;49.342;8.146;2022-11-21T04:59:40;4.10;;;1.40;;
823;SDS011;373;49.342;8.146;2022-11-21T05:02:07;3.95;;;1.05;;
823;SDS011;373;49.342;8.146;2022-11-21T05:04:35;4.20;;;1.23;;
823;SDS011;373;49.342;8.146;2022-11-21T05:07:02;2.88;;;1.27;;
823;SDS011;373;49.342;8.146;2022-11-21T05:09:29;1.48;;;1.08;;
823;SDS011;373;49.342;8.146;2022-11-21T05:11:57;2.88;;;1.23;;
823;SDS011;373;49.342;8.146;2022-11-21T05:14:42;3.95;;;1.42;;
823;SDS011;373;49.342;8.146;2022-11-21T05:17:10;2.38;;;1.45;;
823;SDS011;373;49.342;8.146;2022-11-21T05:19:37;3.78;;;1.52;;
823;SDS011;373;49.342;8.146;2022-11-21T05:22:04;1.70;;;0.95;;
823;SDS011;373;49.342;8.146;2022-11-21T05:24:31;3.95;;;1.20;;
823;SDS011;373;49.342;8.146;2022-11-21T05:26:58;4.60;;;1.27;;
823;SDS011;373;49.342;8.146;2022-11-21T05:29:25;3.78;;;1.27;;
823;SDS011;373;49.342;8.146;2022-11-21T05:31:53;2.53;;;1.10;;
823;SDS011;373;49.342;8.146;2022-11-21T05:34:20;1.63;;;1.27;;
823;SDS011;373;49.342;8.146;2022-11-21T05:36:48;2.75;;;1.10;;
823;SDS011;373;49.342;8.146;2022-11-21T05:39:21;4.55;;;1.50;;
823;SDS011;373;49.342;8.146;2022-11-21T05:41:48;2.03;;;1.08;;
823;SDS011;373;49.342;8.146;2022-11-21T05:44:15;2.38;;;1.00;;
823;SDS011;373;49.342;8.146;2022-11-21T05:46:41;4.00;;;1.35;;
823;SDS011;373;49.342;8.146;2022-11-21T05:49:10;1.35;;;0.85;;
823;SDS011;373;49.342;8.146;2022-11-21T05:51:37;2.28;;;0.80;;
823;SDS011;373;49.342;8.146;2022-11-21T05:54:04;3.60;;;1.73;;
823;SDS011;373;49.342;8.146;2022-11-21T05:56:31;3.35;;;1.23;;
823;SDS011;373;49.342;8.146;2022-11-21T05:58:59;1.50;;;0.80;;
823;SDS011;373;49.342;8.146;2022-11-21T06:01:26;2.60;;;1.10;;
823;SDS011;373;49.342;8.146;2022-11-21T06:04:14;1.45;;;1.08;;
823;SDS011;373;49.342;8.146;2022-11-21T06:06:41;3.92;;;1.02;;
823;SDS011;373;49.342;8.146;2022-11-21T06:09:08;1.17;;;0.98;;
823;SDS011;373;49.342;8.146;2022-11-21T06:11:35;2.75;;;1.15;;
823;SDS011;373;49.342;8.146;2022-11-21T06:14:02;1.48;;;0.68;;
823;SDS011;373;49.342;8.146;2022-11-21T06:16:30;3.25;;;0.80;;
823;SDS011;373;49.342;8.146;2022-11-21T06:18:58;1.67;;;1.02;;
823;SDS011;373;49.342;8.146;2022-11-21T06:21:27;1.70;;;0.90;;
823;SDS011;373;49.342;8.146;2022-11-21T06:23:55;4.07;;;1.00;;
823;SDS011;373;49.342;8.146;2022-11-21T06:26:24;1.95;;;1.20;;
823;SDS011;373;49.342;8.146;2022-11-21T06:28:52;4.45;;;1.65;;
823;SDS011;373;49.342;8.146;2022-11-21T06:31:20;3.55;;;1.52;;
823;SDS011;373;49.342;8.146;2022-11-21T06:33:50;2.13;;;1.90;;
823;SDS011;373;49.342;8.146;2022-11-21T06:36:18;2.83;;;1.13;;
823;SDS011;373;49.342;8.146;2022-11-21T06:38:47;2.42;;;1.70;;
823;SDS011;373;49.342;8.146;2022-11-21T06:41:14;2.85;;;1.52;;
823;SDS011;373;49.342;8.146;2022-11-21T06:43:43;4.57;;;1.77;;
823;SDS011;373;49.342;8.146;2022-11-21T06:46:10;4.97;;;2.42;;
823;SDS011;373;49.342;8.146;2022-11-21T06:48:38;3.28;;;1.50;;
823;SDS011;373;49.342;8.146;2022-11-21T06:51:06;3.72;;;1.58;;
823;SDS011;373;49.342;8.146;2022-11-21T06:53:36;3.30;;;1.40;;
823;SDS011;373;49.342;8.146;2022-11-21T06:56:05;2.25;;;1.40;;
823;SDS011;373;49.342;8.146;2022-11-21T06:58:32;5.55;;;1.40;;
823;SDS011;373;49.342;8.146;2022-11-21T07:01:02;4.07;;;1.40;;
823;SDS011;373;49.342;8.146;2022-11-21T07:03:29;3.78;;;1.50;;
823;SDS011;373;49.342;8.146;2022-11-21T07:05:58;5.32;;;1.45;;
823;SDS011;373;49.342;8.146;2022-11-21T07:08:26;2.67;;;2.22;;
823;SDS011;373;49.342;8.146;2022-11-21T07:10:53;4.18;;;1.20;;
823;SDS011;373;49.342;8.146;2022-11-21T07:13:22;6.47;;;1.67;;
823;SDS011;373;49.342;8.146;2022-11-21T07:15:48;2.83;;;1.50;;
823;SDS011;373;49.342;8.146;2022-11-21T07:18:17;1.23;;;0.82;;
823;SDS011;373;49.342;8.146;2022-11-21T07:20:44;2.72;;;1.20;;
823;SDS011;373;49.342;8.146;2022-11-21T07:23:12;2.08;;;1.38;;
823;SDS011;373;49.342;8.146;2022-11-21T07:25:40;4.80;;;1.17;;
823;SDS011;373;49.342;8.146;2022-11-21T07:28:07;1.70;;;1.10;;
823;SDS011;373;49.342;8.146;2022-11-21T07:30:36;3.67;;;1.13;;
823;SDS011;373;49.342;8.146;2022-11-21T07:33:04;1.75;;;1.15;;
823;SDS011;373;49.342;8.146;2022-11-21T07:35:34;2.67;;;1.00;;
823;SDS011;373;49.342;8.146;2022-11-21T07:38:01;3.65;;;1.30;;
823;SDS011;373;49.342;8.146;2022-11-21T07:40:29;1.85;;;1.02;;
823;SDS011;373;49.342;8.146;2022-11-21T07:43:00;4.22;;;1.23;;
823;SDS011;373;49.342;8.146;2022-11-21T07:45:28;2.63;;;1.10;;
823;SDS011;373;49.342;8.146;2022-11-21T07:47:57;1.98;;;1.35;;
823;SDS011;373;49.342;8.146;2022-11-21T07:50:25;4.07;;;1.45;;
823;SDS011;373;49.342;8.146;2022-11-21T07:52:55;4.13;;;1.45;;
823;SDS011;373;49.342;8.146;2022-11-21T07:55:23;3.63;;;1.40;;
823;SDS011;373;49.342;8.146;2022-11-21T07:57:57;1.90;;;1.35;;
823;SDS011;373;49.342;8.146;2022-11-21T08:00:25;2.85;;;1.50;;
823;SDS011;373;49.342;8.146;2022-11-21T08:02:53;4.75;;;1.33;;
823;SDS011;373;49.342;8.146;2022-11-21T08:05:22;3.97;;;1.40;;
823;SDS011;373;49.342;8.146;2022-11-21T08:07:49;3.72;;;1.23;;
823;SDS011;373;49.342;8.146;2022-11-21T08:10:16;1.70;;;1.08;;
823;SDS011;373;49.342;8.146;2022-11-21T08:12:44;2.42;;;1.40;;
823;SDS011;373;49.342;8.146;2022-11-21T08:15:11;2.30;;;1.05;;
823;SDS011;373;49.342;8.146;2022-11-21T08:17:38;2.35;;;1.25;;
823;SDS011;373;49.342;8.146;2022-11-21T08:20:06;3.13;;;1.02;;
823;SDS011;373;49.342;8.146;2022-11-21T08:22:37;5.43;;;2.55;;
823;SDS011;373;49.342;8.146;2022-11-21T08:25:06;3.83;;;2.20;;
823;SDS011;373;49.342;8.146;2022-11-21T08:27:35;1.65;;;1.25;;
823;SDS011;373;49.342;8.146;2022-11-21T08:30:03;4.40;;;1.75;;
823;SDS011;373;49.342;8.146;2022-11-21T08:32:31;1.65;;;1.00;;
823;SDS011;373;49.342;8.146;2022-11-21T08:34:59;2.85;;;1.10;;
823;SDS011;373;49.342;8.146;2022-11-21T08:37:26;3.97;;;1.20;;
823;SDS011;373;49.342;8.146;2022-11-21T08:39:55;5.18;;;1.73;;
823;SDS011;373;49.342;8.146;2022-11-21T08:42:25;2.30;;;1.20;;
823;SDS011;373;49.342;8.146;2022-11-21T08:44:52;2.05;;;0.82;;
823;SDS011;373;49.342;8.146;2022-11-21T08:47:20;3.70;;;0.95;;
823;SDS011;373;49.342;8.146;2022-11-21T08:49:47;1.75;;;1.40;;
823;SDS011;373;49.342;8.146;2022-11-21T08:52:14;3.90;;;1.27;;
823;SDS011;373;49.342;8.146;2022-11-21T08:54:42;2.75;;;1.05;;
823;SDS011;373;49.342;8.146;2022-11-21T08:57:11;3.55;;;1.65;;
823;SDS011;373;49.342;8.146;2022-11-21T08:59:38;2.97;;;1.20;;
823;SDS011;373;49.342;8.146;2022-11-21T09:02:05;3.63;;;1.38;;
823;SDS011;373;49.342;8.146;2022-11-21T09:04:35;4.55;;;1.15;;
823;SDS011;373;49.342;8.146;2022-11-21T09:07:02;3.38;;;1.15;;
823;SDS011;373;49.342;8.146;2022-11-21T09:09:30;3.35;;;1.15;;
823;SDS011;373;49.342;8.146;2022-11-21T09:11:58;2.97;;;1.13;;
823;SDS011;373;49.342;8.146;2022-11-21T09:14:28;3.58;;;1.83;;
823;SDS011;373;49.342;8.146;2022-11-21T09:17:12;2.97;;;1.00;;
823;SDS011;373;49.342;8.146;2022-11-21T09:19:57;2.22;;;1.00;;
823;SDS011;373;49.342;8.146;2022-11-21T09:22:24;1.92;;;0.93;;
823;SDS011;373;49.342;8.146;2022-11-21T09:24:51;3.50;;;1.50;;
823;SDS011;373;49.342;8.146;2022-11-21T09:27:18;2.95;;;1.40;;
823;SDS011;373;49.342;8.146;2022-11-21T09:29:47;3.13;;;1.30;;
823;SDS011;373;49.342;8.146;2022-11-21T09:32:14;2.95;;;1.15;;
823;SDS011;373;49.342;8.146;2022-11-21T09:34:41;4.88;;;1.45;;
823;SDS011;373;49.342;8.146;2022-11-21T09:37:08;4.50;;;1.30;;
823;SDS011;373;49.342;8.146;2022-11-21T09:39:35;4.63;;;1.50;;
823;SDS011;373;49.342;8.146;2022-11-21T09:42:06;3.85;;;1.38;;
823;SDS011;373;49.342;8.146;2022-11-21T09:44:56;2.65;;;1.50;;
823;SDS011;373;49.342;8.146;2022-11-21T09:47:30;2.92;;;1.20;;
823;SDS011;373;49.342;8.146;2022-11-21T09:50:00;5.57;;;1.30;;
823;SDS011;373;49.342;8.146;2022-11-21T09:52:35;3.30;;;1.48;;
823;SDS011;373;49.342;8.146;2022-11-21T09:55:05;3.20;;;1.20;;
823;SDS011;373;49.342;8.146;2022-11-21T09:57:39;2.63;;;1.00;;
823;SDS011;373;49.342;8.146;2022-11-21T10:00:12;1.88;;;1.10;;
823;SDS011;373;49.342;8.146;2022-11-21T10:02:44;4.95;;;1.20;;
823;SDS011;373;49.342;8.146;2022-11-21T10:05:12;3.92;;;1.50;;
823;SDS011;373;49.342;8.146;2022-11-21T10:07:40;5.05;;;1.17;;
823;SDS011;373;49.342;8.146;2022-11-21T10:10:16;2.33;;;1.40;;
823;SDS011;373;49.342;8.146;2022-11-21T10:12:54;3.08;;;1.40;;
823;SDS011;373;49.342;8.146;2022-11-21T10:15:44;2.40;;;1.20;;
823;SDS011;373;49.342;8.146;2022-11-21T10:18:23;3.03;;;1.27;;
823;SDS011;373;49.342;8.146;2022-11-21T10:21:07;2.78;;;1.10;;
823;SDS011;373;49.342;8.146;2022-11-21T10:23:49;4.05;;;1.80;;
823;SDS011;373;49.342;8.146;2022-11-21T10:26:39;3.60;;;1.52;;
823;SDS011;373;49.342;8.146;2022-11-21T10:29:14;3.38;;;1.05;;
823;SDS011;373;49.342;8.146;2022-11-21T10:31:48;3.80;;;1.75;;
823;SDS011;373;49.342;8.146;2022-11-21T10:34:17;2.22;;;1.15;;
823;SDS011;373;49.342;8.146;2022-11-21T10:36:47;3.35;;;1.40;;
823;SDS011;373;49.342;8.146;2022-11-21T10:39:19;6.72;;;2.13;;
823;SDS011;373;49.342;8.146;2022-11-21T10:41:53;4.93;;;1.98;;
823;SDS011;373;49.342;8.146;2022-11-21T10:44:27;3.95;;;2.08;;
823;SDS011;373;49.342;8.146;2022-11-21T10:47:14;2.88;;;1.38;;
823;SDS011;373;49.342;8.146;2022-11-21T10:49:52;2.50;;;2.00;;
823;SDS011;373;49.342;8.146;2022-11-21T10:52:26;4.18;;;2.20;;
823;SDS011;373;49.342;8.146;2022-11-21T10:55:05;5.93;;;2.10;;
823;SDS011;373;49.342;8.146;2022-11-21T10:57:38;3.35;;;1.33;;
823;SDS011;373;49.342;8.146;2022-11-21T11:00:19;1.90;;;1.00;;
823;SDS011;373;49.342;8.146;2022-11-21T11:03:00;3.17;;;1.40;;
823;SDS011;373;49.342;8.146;2022-11-21T11:05:31;2.92;;;1.13;;
823;SDS011;373;49.342;8.146;2022-11-21T11:08:00;3.97;;;1.60;;
823;SDS011;373;49.342;8.146;2022-11-21T11:10:33;4.22;;;1.95;;
823;SDS011;373;49.342;8.146;2022-11-21T11:13:01;4.47;;;2.42;;
823;SDS011;373;49.342;8.146;2022-11-21T11:15:57;4.13;;;2.03;;
823;SDS011;373;49.342;8.146;2022-11-21T11:18:30;4.20;;;1.90;;
823;SDS011;373;49.342;8.146;2022-11-21T11:23:45;5.03;;;1.38;;
823;SDS011;373;49.342;8.146;2022-11-21T11:29:15;4.07;;;1.40;;
823;SDS011;373;49.342;8.146;2022-11-21T11:31:49;3.38;;;1.50;;
823;SDS011;373;49.342;8.146;2022-11-21T11:34:21;5.75;;;2.50;;
823;SDS011;373;49.342;8.146;2022-11-21T11:36:53;3.72;;;1.50;;
823;SDS011;373;49.342;8.146;2022-11-21T11:39:25;5.63;;;1.30;;
823;SDS011;373;49.342;8.146;2022-11-21T11:42:13;3.05;;;1.38;;
823;SDS011;373;49.342;8.146;2022-11-21T11:45:15;2.15;;;1.45;;
823;SDS011;373;49.342;8.146;2022-11-21T11:48:08;4.05;;;1.63;;
823;SDS011;373;49.342;8.146;2022-11-21T11:50:38;3.47;;;1.35;;
823;SDS011;373;49.342;8.146;2022-11-21T11:53:09;2.58;;;1.52;;
823;SDS011;373;49.342;8.146;2022-11-21T11:55:42;3.50;;;1.30;;
823;SDS011;373;49.342;8.146;2022-11-21T11:58:15;3.47;;;1.05;;
823;SDS011;373;49.342;8.146;2022-11-21T12:00:48;2.83;;;1.08;;
823;SDS011;373;49.342;8.146;2022-11-21T12:03:18;1.88;;;1.02;;
823;SDS011;373;49.342;8.146;2022-11-21T12:05:53;4.80;;;1.58;;
823;SDS011;373;49.342;8.146;2022-11-21T12:08:27;2.75;;;1.60;;
823;SDS011;373;49.342;8.146;2022-11-21T12:11:02;2.67;;;1.17;;
823;SDS011;373;49.342;8.146;2022-11-21T12:13:56;2.13;;;1.00;;
823;SDS011;373;49.342;8.146;2022-11-21T12:16:30;3.60;;;1.25;;
823;SDS011;373;49.342;8.146;2022-11-21T12:18:58;3.83;;;1.52;;
823;SDS011;373;49.342;8.146;2022-11-21T12:21:32;3.67;;;1.25;;
823;SDS011;373;49.342;8.146;2022-11-21T12:24:01;3.05;;;0.90;;
823;SDS011;373;49.342;8.146;2022-11-21T12:26:35;3.40;;;1.40;;
823;SDS011;373;49.342;8.146;2022-11-21T12:29:14;4.43;;;1.40;;
823;SDS011;373;49.342;8.146;2022-11-21T12:31:56;4.50;;;1.10;;
823;SDS011;373;49.342;8.146;2022-11-21T12:34:53;4.03;;;1.50;;
823;SDS011;373;49.342;8.146;2022-11-21T12:37:37;5.20;;;1.60;;
823;SDS011;373;49.342;8.146;2022-11-21T12:40:18;4.97;;;1.77;;
823;SDS011;373;49.342;8.146;2022-11-21T12:42:58;5.15;;;1.85;;
823;SDS011;373;49.342;8.146;2022-11-21T12:45:35;4.00;;;1.60;;
823;SDS011;373;49.342;8.146;2022-11-21T12:48:13;5.97;;;2.53;;
823;SDS011;373;49.342;8.146;2022-11-21T12:51:06;4.43;;;1.70;;
823;SDS011;373;49.342;8.146;2022-11-21T12:54:30;3.15;;;1.40;;
823;SDS011;373;49.342;8.146;2022-11-21T12:57:11;3.83;;;1.50;;
823;SDS011;373;49.342;8.146;2022-11-21T12:59:48;5.22;;;1.50;;
823;SDS011;373;49.342;8.146;2022-11-21T13:02:25;3.30;;;1.40;;
823;SDS011;373;49.342;8.146;2022-11-21T13:04:58;4.68;;;1.67;;
823;SDS011;373;49.342;8.146;2022-11-21T13:07:27;6.65;;;1.60;;
823;SDS011;373;49.342;8.146;2022-11-21T13:09:58;6.63;;;3.03;;
823;SDS011;373;49.342;8.146;2022-11-21T13:12:29;6.00;;;2.65;;
823;SDS011;373;49.342;8.146;2022-11-21T13:15:08;4.28;;;1.85;;
823;SDS011;373;49.342;8.146;2022-11-21T13:17:44;2.50;;;1.55;;
823;SDS011;373;49.342;8.146;2022-11-21T13:20:20;8.65;;;4.60;;
823;SDS011;373;49.342;8.146;2022-11-21T13:23:00;10.15;;;4.60;;
823;SDS011;373;49.342;8.146;2022-11-21T13:25:35;9.70;;;4.75;;
823;SDS011;373;49.342;8.146;2022-11-21T13:34:31;8.27;;;2.38;;
823;SDS011;373;49.342;8.146;2022-11-21T13:37:01;8.63;;;2.47;;
823;SDS011;373;49.342;8.146;2022-11-21T13:39:30;4.28;;;1.58;;
823;SDS011;373;49.342;8.146;2022-11-21T13:42:06;7.88;;;2.03;;
823;SDS011;373;49.342;8.146;2022-11-21T13:44:54;2.67;;;1.30;;
823;SDS011;373;49.342;8.146;2022-11-21T13:56:10;4.30;;;1.52;;
823;SDS011;373;49.342;8.146;2022-11-21T13:58:55;4.75;;;1.85;;
823;SDS011;373;49.342;8.146;2022-11-21T14:04:52;9.70;;;3.05;;
823;SDS011;373;49.342;8.146;2022-11-21T14:07:31;7.03;;;2.50;;
823;SDS011;373;49.342;8.146;2022-11-21T14:09:59;4.55;;;1.77;;
823;SDS011;373;49.342;8.146;2022-11-21T14:12:28;4.88;;;1.92;;
823;SDS011;373;49.342;8.146;2022-11-21T14:17:46;4.70;;;2.20;;
823;SDS011;373;49.342;8.146;2022-11-21T14:20:16;7.72;;;2.38;;
823;SDS011;373;49.342;8.146;2022-11-21T14:22:52;7.85;;;2.65;;
823;SDS011;373;49.342;8.146;2022-11-21T14:25:23;4.43;;;2.00;;
823;SDS011;373;49.342;8.146;2022-11-21T14:27:55;5.20;;;2.03;;
823;SDS011;373;49.342;8.146;2022-11-21T14:30:26;6.13;;;2.72;;
823;SDS011;373;49.342;8.146;2022-11-21T14:32:55;5.35;;;2.40;;
823;SDS011;373;49.342;8.146;2022-11-21T14:35:22;7.57;;;2.33;;
823;SDS011;373;49.342;8.146;2022-11-21T14:37:50;7.47;;;2.30;;
823;SDS011;373;49.342;8.146;2022-11-21T14:40:19;11.23;;;2.92;;
823;SDS011;373;49.342;8.146;2022-11-21T14:42:48;4.97;;;2.50;;
823;SDS011;373;49.342;8.146;2022-11-21T14:45:16;11.13;;;6.13;;
823;SDS011;373;49.342;8.146;2022-11-21T14:47:47;7.75;;;2.42;;
823;SDS011;373;49.342;8.146;2022-11-21T14:50:22;5.70;;;2.15;;
823;SDS011;373;49.342;8.146;2022-11-21T14:52:50;8.05;;;2.78;;
823;SDS011;373;49.342;8.146;2022-11-21T14:55:23;6.75;;;2.40;;
823;SDS011;373;49.342;8.146;2022-11-21T14:57:52;5.07;;;2.20;;
823;SDS011;373;49.342;8.146;2022-11-21T15:00:20;5.13;;;1.98;;
823;SDS011;373;49.342;8.146;2022-11-21T15:02:51;7.60;;;2.35;;
823;SDS011;373;49.342;8.146;2022-11-21T15:05:20;6.25;;;3.17;;
823;SDS011;373;49.342;8.146;2022-11-21T15:07:48;6.60;;;2.67;;
823;SDS011;373;49.342;8.146;2022-11-21T15:10:16;5.95;;;2.53;;
823;SDS011;373;49.342;8.146;2022-11-21T15:12:46;8.43;;;2.75;;
823;SDS011;373;49.342;8.146;2022-11-21T15:15:23;4.60;;;2.50;;
823;SDS011;373;49.342;8.146;2022-11-21T15:17:55;7.90;;;2.78;;
823;SDS011;373;49.342;8.146;2022-11-21T15:20:23;7.50;;;2.25;;
823;SDS011;373;49.342;8.146;2022-11-21T15:22:53;7.50;;;2.55;;
823;SDS011;373;49.342;8.146;2022-11-21T15:25:22;4.78;;;2.20;;
823;SDS011;373;49.342;8.146;2022-11-21T15:27:51;7.65;;;2.35;;
823;SDS011;373;49.342;8.146;2022-11-21T15:30:33;9.32;;;3.03;;
823;SDS011;373;49.342;8.146;2022-11-21T15:33:03;6.72;;;2.78;;
823;SDS011;373;49.342;8.146;2022-11-21T15:35:40;6.40;;;2.70;;
823;SDS011;373;49.342;8.146;2022-11-21T15:38:13;9.00;;;3.10;;
823;SDS011;373;49.342;8.146;2022-11-21T15:40:55;5.40;;;2.42;;
823;SDS011;373;49.342;8.146;2022-11-21T15:46:16;8.75;;;3.25;;
823;SDS011;373;49.342;8.146;2022-11-21T15:48:48;4.15;;;2.50;;
823;SDS011;373;49.342;8.146;2022-11-21T15:51:18;9.18;;;2.90;;
823;SDS011;373;49.342;8.146;2022-11-21T15:53:46;6.03;;;2.38;;
823;SDS011;373;49.342;8.146;2022-11-21T15:56:14;6.40;;;2.45;;
823;SDS011;373;49.342;8.146;2022-11-21T15:58:43;6.45;;;2.38;;
823;SDS011;373;49.342;8.146;2022-11-21T16:01:14;7.30;;;2.33;;
823;SDS011;373;49.342;8.146;2022-11-21T16:03:42;6.47;;;2.72;;
823;SDS011;373;49.342;8.146;2022-11-21T16:06:11;5.53;;;2.70;;
823;SDS011;373;49.342;8.146;2022-11-21T16:08:38;5.25;;;2.78;;
823;SDS011;373;49.342;8.146;2022-11-21T16:11:05;4.82;;;2.65;;
823;SDS011;373;49.342;8.146;2022-11-21T16:13:33;8.73;;;3.08;;
823;SDS011;373;49.342;8.146;2022-11-21T16:16:00;5.32;;;2.42;;
823;SDS011;373;49.342;8.146;2022-11-21T16:18:28;9.15;;;5.22;;
823;SDS011;373;49.342;8.146;2022-11-21T16:21:05;11.00;;;5.97;;
823;SDS011;373;49.342;8.146;2022-11-21T16:23:34;11.43;;;5.18;;
823;SDS011;373;49.342;8.146;2022-11-21T16:26:01;10.20;;;5.57;;
823;SDS011;373;49.342;8.146;2022-11-21T16:28:29;7.60;;;5.28;;
823;SDS011;373;49.342;8.146;2022-11-21T16:30:56;10.10;;;4.95;;
823;SDS011;373;49.342;8.146;2022-11-21T16:33:23;10.90;;;5.85;;
823;SDS011;373;49.342;8.146;2022-11-21T16:35:51;8.35;;;5.38;;